Time;durP1;ratioP1;P1;durP2;ratioP2;P2;SDS_P1;SDS_P2;PMS_P1;PMS_P2;Temp;Humidity;BMP_temperature;BMP_pressure;BME280_temperature;BME280_humidity;BME280_pressure;Samples;Min_cycle;Max_cycle;Signal;HPM_P1;HPM_P2
2021/01/16 00:01:03;;;;;;;16.40;12.03;;;;;;;0.62;89.60;99746.00;4907944;28;102863;-75
2021/01/16 00:03:34;;;;;;;14.67;11.10;;;;;;;0.59;89.51;99757.34;4909266;28;106291;-74
2021/01/16 00:06:03;;;;;;;17.10;11.90;;;;;;;0.63;89.65;99752.09;4905360;28;104231;-74
2021/01/16 00:08:31;;;;;;;15.93;11.67;;;;;;;0.62;89.65;99750.38;4904606;28;103289;-78
2021/01/16 00:11:00;;;;;;;13.83;10.30;;;;;;;0.49;90.75;99750.56;4906158;28;103101;-74
2021/01/16 00:13:29;;;;;;;14.17;11.53;;;;;;;0.50;90.64;99754.03;4904718;28;103335;-74
2021/01/16 00:15:56;;;;;;;16.43;12.20;;;;;;;0.61;90.40;99744.31;4905660;28;105226;-75
2021/01/16 00:18:25;;;;;;;18.63;13.40;;;;;;;0.63;90.08;99744.28;4906322;28;103286;-74
2021/01/16 00:20:54;;;;;;;14.30;10.60;;;;;;;0.59;90.13;99736.53;4905060;28;103027;-77
2021/01/16 00:23:22;;;;;;;15.13;11.27;;;;;;;0.58;90.42;99745.22;4904825;28;104155;-74
2021/01/16 00:25:50;;;;;;;16.33;12.13;;;;;;;0.61;90.06;99743.47;4902625;28;103174;-75
2021/01/16 00:28:19;;;;;;;14.23;10.30;;;;;;;0.65;89.99;99740.78;4903418;28;104235;-74
2021/01/16 00:30:47;;;;;;;16.17;11.90;;;;;;;0.66;90.28;99741.63;4904950;28;104265;-77
2021/01/16 00:33:18;;;;;;;17.50;12.63;;;;;;;0.62;90.00;99746.00;4904064;28;105322;-76
2021/01/16 00:35:47;;;;;;;21.23;13.30;;;;;;;0.61;89.80;99733.91;4905909;28;104158;-78
2021/01/16 00:38:14;;;;;;;16.80;12.97;;;;;;;0.56;89.77;99739.16;4889462;28;104069;-75
2021/01/16 00:40:42;;;;;;;20.03;14.50;;;;;;;0.45;90.66;99741.09;4907348;28;102847;-76
2021/01/16 00:43:12;;;;;;;18.10;14.03;;;;;;;0.40;91.09;99740.31;4888457;28;107543;-76
2021/01/16 00:45:40;;;;;;;18.00;13.80;;;;;;;0.35;90.83;99747.31;4905328;28;107167;-75
2021/01/16 00:48:10;;;;;;;17.77;13.63;;;;;;;0.37;91.14;99745.53;4903556;28;103159;-74
2021/01/16 00:50:38;;;;;;;20.33;14.43;;;;;;;0.28;91.02;99739.63;4904023;28;104964;-75
2021/01/16 00:53:07;;;;;;;16.27;10.97;;;;;;;0.46;91.55;99735.00;4904232;28;106495;-77
2021/01/16 00:55:43;;;;;;;21.07;13.97;;;;;;;0.28;91.43;99740.47;4883679;28;107265;-75
2021/01/16 00:58:12;;;;;;;16.53;12.63;;;;;;;0.42;91.52;99733.31;4906334;28;103008;-75
2021/01/16 01:00:42;;;;;;;18.70;13.40;;;;;;;0.42;91.59;99735.94;4904819;28;103309;-77
2021/01/16 01:03:15;;;;;;;19.37;14.60;;;;;;;0.41;91.82;99731.63;4903201;28;105783;-77
2021/01/16 01:05:42;;;;;;;18.93;14.50;;;;;;;0.34;91.62;99744.72;4905161;28;103927;-74
2021/01/16 01:08:10;;;;;;;18.93;13.73;;;;;;;0.38;91.53;99736.88;4906233;28;103001;-76
2021/01/16 01:10:41;;;;;;;22.13;15.77;;;;;;;0.34;91.55;99735.19;4905148;28;104453;-74
2021/01/16 01:13:08;;;;;;;18.83;13.87;;;;;;;0.43;91.62;99749.78;4904106;28;103883;-76
2021/01/16 01:15:35;;;;;;;20.57;14.80;;;;;;;0.40;92.03;99755.91;4903432;28;107270;-75
2021/01/16 01:18:04;;;;;;;17.50;13.57;;;;;;;0.47;91.27;99739.34;4904425;28;102631;-75
2021/01/16 01:20:31;;;;;;;19.67;14.50;;;;;;;0.46;91.03;99740.22;4905190;28;103043;-75
2021/01/16 01:22:58;;;;;;;21.03;13.00;;;;;;;0.55;91.16;99750.47;4903810;28;103676;-74
2021/01/16 01:25:26;;;;;;;21.83;15.20;;;;;;;0.56;91.25;99746.97;4904663;28;103966;-75
2021/01/16 01:27:55;;;;;;;18.47;11.53;;;;;;;0.61;91.05;99743.47;4904350;28;102743;-74
2021/01/16 01:30:24;;;;;;;14.23;9.53;;;;;;;0.66;91.28;99741.63;4908154;28;103831;-74
2021/01/16 01:32:51;;;;;;;15.00;10.70;;;;;;;0.66;90.99;99747.69;4908758;28;104562;-78
2021/01/16 01:35:20;;;;;;;19.07;13.33;;;;;;;0.69;91.12;99752.00;4908741;28;104391;-75
2021/01/16 01:37:49;;;;;;;19.23;13.20;;;;;;;0.72;90.47;99751.94;4907023;28;104121;-74
2021/01/16 01:40:18;;;;;;;17.27;13.17;;;;;;;0.68;90.75;99738.13;4906661;28;102935;-77
2021/01/16 01:42:49;;;;;;;16.83;11.30;;;;;;;0.63;90.52;99746.88;4906475;28;108363;-80
2021/01/16 01:45:17;;;;;;;20.67;14.67;;;;;;;0.48;90.81;99743.63;4907294;28;104649;-75
2021/01/16 01:47:46;;;;;;;15.40;11.50;;;;;;;0.61;90.95;99740.84;4909079;28;102619;-74
2021/01/16 01:50:15;;;;;;;20.53;15.30;;;;;;;0.65;90.47;99747.75;4908748;28;102910;-77
2021/01/16 01:52:49;;;;;;;16.90;11.17;;;;;;;0.66;90.41;99742.50;4905264;28;107178;-75
2021/01/16 01:55:37;;;;;;;16.37;11.17;;;;;;;0.71;90.52;99739.81;4908468;28;104107;-76
2021/01/16 01:58:42;;;;;;;21.10;14.73;;;;;;;0.67;89.95;99738.16;4907223;28;102767;-77
2021/01/16 02:01:11;;;;;;;19.10;13.80;;;;;;;0.63;90.56;99742.53;4902426;28;103224;-75
2021/01/16 02:03:42;;;;;;;16.03;11.87;;;;;;;0.59;90.69;99741.72;4904771;28;106958;-74
2021/01/16 02:06:09;;;;;;;23.47;15.47;;;;;;;0.58;90.31;99750.44;4908357;28;104357;-76
2021/01/16 02:08:36;;;;;;;18.60;11.63;;;;;;;0.61;90.70;99738.25;4906277;28;104620;-79
2021/01/16 02:11:03;;;;;;;20.80;15.27;;;;;;;0.62;90.20;99739.97;4906237;28;102825;-75
2021/01/16 02:13:30;;;;;;;20.40;15.33;;;;;;;0.51;90.22;99742.72;4907425;28;103945;-76
2021/01/16 02:16:09;;;;;;;18.03;12.30;;;;;;;0.52;91.05;99734.91;4898575;28;104040;-75
2021/01/16 02:18:39;;;;;;;20.57;15.03;;;;;;;0.57;90.33;99740.03;4904702;28;103032;-75
2021/01/16 02:21:07;;;;;;;14.97;10.73;;;;;;;0.62;90.39;99729.56;4904963;28;103137;-80
2021/01/16 02:23:49;;;;;;;17.37;11.83;;;;;;;0.68;90.27;99734.66;4907149;28;104333;-78
2021/01/16 02:26:47;;;;;;;20.97;14.80;;;;;;;0.60;90.31;99732.19;4907294;28;104892;-76
2021/01/16 02:29:16;;;;;;;17.13;11.80;;;;;;;0.69;90.77;99737.25;4903989;28;103547;-74
2021/01/16 02:31:46;;;;;;;19.53;14.90;;;;;;;0.53;90.56;99731.41;4907244;28;104222;-76
2021/01/16 02:34:18;;;;;;;19.00;14.03;;;;;;;0.61;90.78;99733.06;4889798;28;105892;-75
2021/01/16 02:37:07;;;;;;;19.17;14.60;;;;;;;0.63;90.42;99724.34;4902629;28;105020;-76
2021/01/16 02:39:41;;;;;;;18.80;13.43;;;;;;;0.59;90.38;99730.47;4905052;28;103325;-76
2021/01/16 02:42:13;;;;;;;16.47;10.73;;;;;;;0.57;90.48;99727.91;4907605;28;102841;-74
2021/01/16 02:44:51;;;;;;;16.70;12.53;;;;;;;0.61;91.23;99733.06;4899166;28;105008;-77
2021/01/16 02:47:25;;;;;;;18.90;14.37;;;;;;;0.62;90.63;99729.56;4889210;28;106668;-75
2021/01/16 02:49:53;;;;;;;18.33;13.60;;;;;;;0.64;90.65;99730.41;4906590;28;102680;-75
2021/01/16 02:52:22;;;;;;;22.80;16.23;;;;;;;0.59;90.76;99726.13;4905890;28;102787;-76
2021/01/16 02:54:51;;;;;;;23.80;16.37;;;;;;;0.61;90.72;99728.72;4904192;28;104541;-75
2021/01/16 02:57:18;;;;;;;22.53;15.60;;;;;;;0.64;90.56;99725.19;4904679;28;103048;-74
2021/01/16 02:59:47;;;;;;;19.70;13.97;;;;;;;0.52;90.93;99729.72;4905641;28;102947;-74
2021/01/16 03:02:15;;;;;;;18.20;13.20;;;;;;;0.57;90.77;99735.69;4899184;28;103169;-76
2021/01/16 03:04:43;;;;;;;19.17;13.77;;;;;;;0.59;90.74;99730.47;4905639;28;103015;-74
2021/01/16 03:07:12;;;;;;;18.13;12.33;;;;;;;0.56;90.51;99726.16;4902271;28;103750;-77
2021/01/16 03:09:41;;;;;;;20.57;14.87;;;;;;;0.54;91.30;99733.16;4906957;28;103217;-74
2021/01/16 03:12:10;;;;;;;21.47;14.27;;;;;;;0.63;91.08;99731.28;4889229;28;102818;-75
2021/01/16 03:14:41;;;;;;;21.77;14.57;;;;;;;0.61;90.51;99730.44;4904613;28;104660;-74
2021/01/16 03:17:10;;;;;;;19.67;14.40;;;;;;;0.61;90.75;99727.84;4904100;28;106463;-78
2021/01/16 03:19:40;;;;;;;19.10;14.37;;;;;;;0.62;90.64;99726.97;4904023;28;102897;-77
2021/01/16 03:22:17;;;;;;;19.90;14.00;;;;;;;0.61;90.61;99725.25;4905761;28;103090;-75
2021/01/16 03:24:45;;;;;;;22.30;15.20;;;;;;;0.60;90.54;99724.38;4906551;28;103855;-74
2021/01/16 03:27:13;;;;;;;22.03;15.27;;;;;;;0.44;90.52;99725.53;4905117;28;103453;-76
2021/01/16 03:29:40;;;;;;;21.90;14.77;;;;;;;0.47;90.96;99726.34;4905199;28;103224;-74
2021/01/16 03:32:09;;;;;;;20.63;15.37;;;;;;;0.38;90.96;99730.81;4905920;28;103055;-74
2021/01/16 03:34:38;;;;;;;20.30;13.90;;;;;;;0.44;91.35;99725.53;4901268;28;105584;-76
2021/01/16 03:37:06;;;;;;;22.23;16.23;;;;;;;0.49;91.04;99721.97;4905159;28;104326;-76
2021/01/16 03:39:34;;;;;;;19.67;14.70;;;;;;;0.45;90.70;99722.88;4905138;28;103069;-75
2021/01/16 03:42:01;;;;;;;21.67;15.00;;;;;;;0.52;90.67;99724.53;4888814;28;103241;-75
2021/01/16 03:44:28;;;;;;;19.57;13.60;;;;;;;0.52;90.63;99719.31;4903574;28;104483;-74
2021/01/16 03:46:56;;;;;;;23.40;16.30;;;;;;;0.53;90.34;99722.78;4905639;28;103807;-80
2021/01/16 03:49:24;;;;;;;19.87;14.87;;;;;;;0.61;90.38;99718.31;4906348;28;103365;-75
2021/01/16 03:51:51;;;;;;;19.13;13.07;;;;;;;0.66;90.36;99716.50;4906376;28;103119;-76
2021/01/16 03:54:18;;;;;;;21.03;14.70;;;;;;;0.70;89.85;99727.72;4904522;28;104133;-75
2021/01/16 03:56:45;;;;;;;19.07;14.87;;;;;;;0.57;89.77;99722.69;4899210;28;106907;-74
2021/01/16 03:59:12;;;;;;;22.57;15.23;;;;;;;0.54;90.09;99721.88;4906688;28;103224;-76
2021/01/16 04:01:41;;;;;;;24.17;16.77;;;;;;;0.48;90.14;99717.63;4906239;28;103017;-76
2021/01/16 04:04:08;;;;;;;22.53;16.53;;;;;;;0.46;90.77;99722.00;4905881;28;103181;-74
2021/01/16 04:06:35;;;;;;;19.60;14.83;;;;;;;0.53;90.45;99718.41;4906549;28;104266;-74
2021/01/16 04:09:03;;;;;;;19.93;14.10;;;;;;;0.56;90.76;99736.56;4905586;28;102682;-75
2021/01/16 04:11:30;;;;;;;20.83;13.80;;;;;;;0.55;90.15;99734.88;4905139;28;103184;-77
2021/01/16 04:13:57;;;;;;;21.60;15.27;;;;;;;0.53;89.93;99730.59;4905799;28;104520;-77
2021/01/16 04:16:26;;;;;;;23.07;16.03;;;;;;;0.56;90.13;99736.56;4904783;28;107118;-75
2021/01/16 04:18:53;;;;;;;21.30;15.67;;;;;;;0.59;89.88;99733.06;4906885;28;102867;-75
2021/01/16 04:21:20;;;;;;;21.07;15.37;;;;;;;0.52;90.17;99728.84;4901582;28;103644;-74
2021/01/16 04:23:48;;;;;;;20.83;14.70;;;;;;;0.54;90.28;99745.28;4905769;28;102826;-75
2021/01/16 04:26:15;;;;;;;21.87;15.43;;;;;;;0.55;90.04;99731.41;4906329;28;103812;-74
2021/01/16 04:28:42;;;;;;;20.43;14.40;;;;;;;0.53;90.06;99736.63;4905939;28;103112;-75
2021/01/16 04:31:09;;;;;;;22.70;16.57;;;;;;;0.40;90.04;99735.09;4906458;28;103059;-74
2021/01/16 04:33:37;;;;;;;19.33;13.93;;;;;;;0.46;90.48;99737.59;4902930;28;107244;-74
2021/01/16 04:36:05;;;;;;;21.27;14.57;;;;;;;0.53;89.91;99733.19;4905187;28;104108;-74
2021/01/16 04:38:32;;;;;;;19.17;13.20;;;;;;;0.56;90.28;99733.13;4906499;28;102946;-76
2021/01/16 04:41:01;;;;;;;20.33;13.50;;;;;;;0.54;89.76;99730.53;4906418;28;102981;-75
2021/01/16 04:43:28;;;;;;;19.97;14.43;;;;;;;0.53;89.45;99725.38;4905479;28;104590;-75
2021/01/16 04:46:03;;;;;;;20.97;15.17;;;;;;;0.54;89.38;99727.94;4906569;28;103703;-74
2021/01/16 04:48:33;;;;;;;17.57;12.77;;;;;;;0.56;89.85;99727.94;4905490;28;102912;-74
2021/01/16 04:51:02;;;;;;;17.53;12.60;;;;;;;0.58;89.98;99727.03;4907083;28;103914;-75
2021/01/16 04:53:37;;;;;;;17.43;12.33;;;;;;;0.64;89.56;99728.66;4903197;28;106261;-76
2021/01/16 04:56:07;;;;;;;20.53;15.87;;;;;;;0.56;88.62;99720.13;4905669;28;103670;-74
2021/01/16 04:58:35;;;;;;;21.80;14.30;;;;;;;0.57;89.15;99717.50;4903396;28;103116;-74
2021/01/16 05:01:05;;;;;;;17.97;12.97;;;;;;;0.55;89.15;99724.47;4906245;28;102900;-75
2021/01/16 05:03:37;;;;;;;19.83;13.90;;;;;;;0.53;89.39;99721.00;4902715;28;103472;-74
2021/01/16 05:06:08;;;;;;;22.23;15.27;;;;;;;0.48;89.03;99727.16;4888196;28;106399;-75
2021/01/16 05:08:37;;;;;;;22.07;15.33;;;;;;;0.49;89.36;99723.69;4904745;28;102943;-75
2021/01/16 05:11:08;;;;;;;19.47;13.83;;;;;;;0.51;89.40;99717.59;4905811;28;103045;-74
2021/01/16 05:13:43;;;;;;;22.73;16.03;;;;;;;0.56;88.93;99718.38;4903309;28;107677;-74
2021/01/16 05:16:12;;;;;;;18.37;13.00;;;;;;;0.54;88.83;99720.13;4905971;28;103643;-75
2021/01/16 05:18:42;;;;;;;22.90;14.60;;;;;;;0.57;89.17;99717.50;4905525;28;102971;-77
2021/01/16 05:21:11;;;;;;;20.97;13.93;;;;;;;0.55;88.68;99714.06;4906043;28;103195;-82
2021/01/16 05:23:43;;;;;;;19.37;13.50;;;;;;;0.61;88.88;99714.84;4902249;28;105133;-77
2021/01/16 05:26:11;;;;;;;16.63;11.33;;;;;;;0.58;88.74;99711.41;4903534;28;103309;-78
2021/01/16 05:28:39;;;;;;;20.27;14.77;;;;;;;0.62;89.01;99712.22;4903166;28;102878;-77
2021/01/16 05:31:07;;;;;;;16.67;11.90;;;;;;;0.65;88.61;99713.94;4905488;28;102875;-78
2021/01/16 05:33:36;;;;;;;18.17;12.57;;;;;;;0.66;88.45;99720.81;4903992;28;106544;-78
2021/01/16 05:36:07;;;;;;;21.10;15.33;;;;;;;0.55;88.39;99719.28;4904594;28;104120;-79
2021/01/16 05:38:38;;;;;;;18.33;13.70;;;;;;;0.58;88.92;99719.22;4904809;28;103045;-76
2021/01/16 05:41:08;;;;;;;22.47;15.87;;;;;;;0.58;88.42;99720.97;4903749;28;102902;-83
2021/01/16 05:43:37;;;;;;;18.97;14.13;;;;;;;0.63;88.23;99720.88;4905386;28;104126;-79
2021/01/16 05:46:09;;;;;;;20.33;13.13;;;;;;;0.55;88.61;99721.00;4905384;28;104413;-73
2021/01/16 05:48:37;;;;;;;16.10;11.57;;;;;;;0.53;88.85;99721.00;4904046;28;103304;-72
2021/01/16 05:51:06;;;;;;;22.20;15.53;;;;;;;0.52;89.18;99724.53;4902770;28;102927;-74
2021/01/16 05:53:33;;;;;;;17.27;12.60;;;;;;;0.55;88.72;99728.81;4903210;28;106621;-76
2021/01/16 05:56:01;;;;;;;19.07;13.37;;;;;;;0.53;89.02;99715.81;4900975;28;103790;-80
2021/01/16 05:58:33;;;;;;;22.10;14.80;;;;;;;0.57;88.62;99717.50;4904861;28;103205;-79
2021/01/16 06:01:05;;;;;;;18.20;12.07;;;;;;;0.59;88.58;99715.72;4900697;28;103322;-81
2021/01/16 06:03:35;;;;;;;20.27;14.87;;;;;;;0.51;88.50;99709.78;4902073;28;104881;-80
2021/01/16 06:06:03;;;;;;;19.60;13.57;;;;;;;0.52;88.51;99710.66;4907743;28;103295;-79
2021/01/16 06:08:31;;;;;;;21.83;15.80;;;;;;;0.46;88.68;99714.22;4914402;28;102970;-78
2021/01/16 06:10:58;;;;;;;20.10;14.87;;;;;;;0.47;89.16;99705.53;4913042;28;103021;-75
2021/01/16 06:13:26;;;;;;;28.20;17.13;;;;;;;0.43;88.59;99708.19;4900354;28;104975;-75
2021/01/16 06:15:54;;;;;;;19.97;14.57;;;;;;;0.47;88.46;99713.34;4907953;28;103180;-75
2021/01/16 06:18:25;;;;;;;22.03;15.83;;;;;;;0.42;88.39;99711.69;4906939;28;103486;-80
2021/01/16 06:20:54;;;;;;;21.90;15.60;;;;;;;0.48;88.59;99712.44;4908406;28;103063;-80
2021/01/16 06:23:23;;;;;;;20.77;13.60;;;;;;;0.50;88.35;99709.81;4908082;28;103926;-78
2021/01/16 06:25:54;;;;;;;22.03;15.83;;;;;;;0.44;88.40;99709.91;4906563;28;104895;-90
2021/01/16 06:28:25;;;;;;;21.83;15.23;;;;;;;0.44;88.31;99708.19;4906714;28;103235;-88
2021/01/16 06:30:54;;;;;;;15.87;10.73;;;;;;;0.51;88.51;99707.19;4904501;28;102671;-80
2021/01/16 06:33:25;;;;;;;21.60;14.77;;;;;;;0.52;88.07;99702.84;4905740;28;112419;-83
2021/01/16 06:35:58;;;;;;;18.73;13.17;;;;;;;0.45;89.06;99699.47;4905108;28;106677;-73
2021/01/16 06:38:30;;;;;;;19.83;14.63;;;;;;;0.55;88.60;99701.06;4902318;28;103479;-74
2021/01/16 06:41:16;;;;;;;23.77;15.23;;;;;;;0.42;87.53;99707.31;4903765;28;103233;-73
2021/01/16 06:43:46;;;;;;;16.60;11.27;;;;;;;0.48;88.21;99703.78;4906380;28;109508;-74
2021/01/16 06:46:14;;;;;;;20.83;14.77;;;;;;;0.46;88.10;99698.59;4901267;28;106677;-74
2021/01/16 06:48:44;;;;;;;22.37;15.67;;;;;;;0.49;87.76;99698.56;4904703;28;103239;-73
2021/01/16 06:51:22;;;;;;;19.23;13.20;;;;;;;0.55;87.59;99702.81;4904688;28;102707;-74
2021/01/16 06:53:50;;;;;;;20.07;13.83;;;;;;;0.57;87.25;99695.81;4905635;28;112232;-73
2021/01/16 06:56:26;;;;;;;18.60;12.77;;;;;;;0.53;87.43;99695.00;4905723;28;103234;-74
2021/01/16 06:58:55;;;;;;;25.93;17.13;;;;;;;0.55;88.07;99703.66;4906475;28;103090;-74
2021/01/16 07:01:30;;;;;;;17.33;12.30;;;;;;;0.57;88.04;99699.28;4907410;28;103034;-73
2021/01/16 07:04:00;;;;;;;16.57;10.87;;;;;;;0.63;87.91;99695.72;4904829;28;103969;-74
2021/01/16 07:06:27;;;;;;;20.07;13.87;;;;;;;0.67;87.89;99688.75;4901636;28;104850;-74
2021/01/16 07:08:57;;;;;;;17.23;11.63;;;;;;;0.63;87.58;99687.06;4904705;28;102592;-73
2021/01/16 07:11:24;;;;;;;17.27;12.47;;;;;;;0.66;87.83;99694.81;4905683;28;103352;-74
2021/01/16 07:13:51;;;;;;;19.57;12.73;;;;;;;0.62;87.88;99696.59;4904369;28;104436;-74
2021/01/16 07:16:18;;;;;;;17.93;13.47;;;;;;;0.64;87.34;99702.66;4907347;28;103716;-74
2021/01/16 07:18:46;;;;;;;21.60;13.17;;;;;;;0.65;87.81;99699.16;4906041;28;102654;-74
2021/01/16 07:21:19;;;;;;;22.60;16.20;;;;;;;0.62;87.29;99695.78;4907633;28;102969;-74
2021/01/16 07:23:47;;;;;;;23.20;16.27;;;;;;;0.54;87.34;99701.06;4904405;28;104931;-74
2021/01/16 07:26:15;;;;;;;20.57;14.33;;;;;;;0.57;87.94;99701.88;4901507;28;104773;-74
2021/01/16 07:28:44;;;;;;;20.23;13.83;;;;;;;0.52;87.72;99710.66;4904724;28;103114;-77
2021/01/16 07:31:12;;;;;;;21.20;16.60;;;;;;;0.53;87.50;99708.00;4907209;28;102791;-74
2021/01/16 07:33:40;;;;;;;16.03;12.37;;;;;;;0.63;87.33;99710.47;4904533;28;103344;-76
2021/01/16 07:36:12;;;;;;;21.23;13.57;;;;;;;0.61;87.18;99712.25;4905843;28;103477;-77
2021/01/16 07:38:42;;;;;;;21.07;15.70;;;;;;;0.59;87.25;99705.31;4903716;28;103504;-75
2021/01/16 07:41:12;;;;;;;21.43;14.00;;;;;;;0.66;87.56;99715.63;4906140;28;102980;-74
2021/01/16 07:44:04;;;;;;;23.10;15.30;;;;;;;0.68;86.94;99713.84;4905360;28;104112;-75
2021/01/16 07:46:32;;;;;;;19.90;14.33;;;;;;;0.64;87.33;99723.47;4897327;28;104994;-75
2021/01/16 07:49:02;;;;;;;16.97;12.27;;;;;;;0.70;87.52;99717.31;4903186;28;102614;-75
2021/01/16 07:51:35;;;;;;;19.27;13.90;;;;;;;0.67;87.13;99714.75;4906341;28;103308;-74
2021/01/16 07:54:05;;;;;;;20.17;15.03;;;;;;;0.53;87.50;99721.00;4904812;28;104346;-74
2021/01/16 07:56:37;;;;;;;19.33;13.03;;;;;;;0.61;87.71;99717.44;4900470;28;104285;-74
2021/01/16 07:59:18;;;;;;;19.17;13.87;;;;;;;0.65;87.50;99719.97;4900872;28;103192;-76
2021/01/16 08:02:19;;;;;;;20.20;14.13;;;;;;;0.67;86.99;99722.56;4903451;28;102794;-78
2021/01/16 08:04:57;;;;;;;19.47;13.47;;;;;;;0.59;87.43;99717.47;4902838;28;105212;-75
2021/01/16 08:07:45;;;;;;;22.40;16.07;;;;;;;0.61;87.93;99720.06;4903939;28;103263;-76
2021/01/16 08:10:18;;;;;;;18.90;12.77;;;;;;;0.67;88.17;99717.34;4906403;28;103127;-76
2021/01/16 08:12:48;;;;;;;22.23;15.03;;;;;;;0.70;87.96;99714.69;4907515;28;102998;-80
2021/01/16 08:15:17;;;;;;;25.70;17.40;;;;;;;0.44;88.50;99710.78;4904353;28;107058;-75
2021/01/16 08:17:47;;;;;;;21.83;16.87;;;;;;;0.27;89.31;99707.59;4905801;28;103611;-78
2021/01/16 08:20:18;;;;;;;22.90;17.33;;;;;;;0.12;90.62;99714.72;4904292;28;102903;-80
2021/01/16 08:22:51;;;;;;;20.23;15.17;;;;;;;0.17;91.94;99705.16;4905433;28;102871;-78
2021/01/16 08:25:24;;;;;;;17.60;13.33;;;;;;;0.38;91.12;99700.47;4903209;28;106551;-83
2021/01/16 08:27:53;;;;;;;23.17;16.33;;;;;;;0.43;90.68;99696.06;4903879;28;104599;-77
2021/01/16 08:30:22;;;;;;;24.70;16.70;;;;;;;0.26;91.35;99695.47;4904273;28;102871;-76
2021/01/16 08:32:53;;;;;;;25.37;17.53;;;;;;;0.01;92.52;99696.69;4904954;28;102904;-77
2021/01/16 08:35:22;;;;;;;24.27;17.47;;;;;;;0.01;93.89;99699.31;4904665;28;104637;-77
2021/01/16 08:37:50;;;;;;;24.47;17.53;;;;;;;-0.06;94.20;99702.88;4902564;28;104250;-76
2021/01/16 08:40:34;;;;;;;21.77;15.57;;;;;;;0.14;94.20;99690.44;4904227;28;102785;-77
2021/01/16 08:43:02;;;;;;;23.97;16.67;;;;;;;-0.12;94.35;99697.75;4905228;28;102925;-86
2021/01/16 08:45:30;;;;;;;25.03;18.40;;;;;;;-0.01;95.11;99690.69;4886921;28;105158;-75
2021/01/16 08:47:58;;;;;;;25.07;18.50;;;;;;;-0.01;94.52;99688.06;4903609;28;103357;-75
2021/01/16 08:50:30;;;;;;;21.73;15.47;;;;;;;0.06;94.91;99697.47;4904871;28;103532;-74
2021/01/16 08:52:58;;;;;;;26.20;17.97;;;;;;;0.16;94.47;99683.50;4903986;28;103132;-75
2021/01/16 08:55:27;;;;;;;28.23;17.90;;;;;;;0.04;94.03;99690.59;4887896;28;106867;-74
2021/01/16 08:58:09;;;;;;;23.93;16.90;;;;;;;0.15;94.68;99686.09;4903674;28;103720;-74
2021/01/16 09:00:37;;;;;;;24.30;16.57;;;;;;;0.11;94.45;99682.72;4905673;28;102992;-75
2021/01/16 09:03:07;;;;;;;23.80;16.00;;;;;;;0.06;94.68;99681.91;4904273;28;103003;-76
2021/01/16 09:05:35;;;;;;;21.57;15.53;;;;;;;0.22;94.32;99687.75;4905715;28;104977;-75
2021/01/16 09:08:04;;;;;;;19.90;14.73;;;;;;;0.24;94.42;99692.03;4885860;28;104580;-77
2021/01/16 09:10:32;;;;;;;24.47;17.77;;;;;;;0.17;94.40;99694.75;4892678;28;104152;-76
2021/01/16 09:12:59;;;;;;;19.30;14.70;;;;;;;0.15;94.38;99692.16;4895573;28;103776;-77
2021/01/16 09:15:34;;;;;;;25.70;18.27;;;;;;;0.27;94.02;99686.78;4887368;28;103793;-79
2021/01/16 09:18:09;;;;;;;24.53;16.63;;;;;;;0.31;93.83;99693.63;4886936;28;104780;-79
2021/01/16 09:20:39;;;;;;;25.97;18.80;;;;;;;0.18;93.59;99697.31;4894689;28;103601;-80
2021/01/16 09:23:26;;;;;;;26.10;18.80;;;;;;;0.38;93.68;99705.66;4897898;28;103187;-77
2021/01/16 09:25:56;;;;;;;23.27;16.83;;;;;;;0.40;93.61;99701.31;4893173;28;107243;-79
2021/01/16 09:28:42;;;;;;;25.37;17.07;;;;;;;0.30;93.12;99717.94;4894860;28;103875;-81
2021/01/16 09:31:18;;;;;;;22.23;16.67;;;;;;;0.39;92.99;99706.53;4889260;28;103303;-79
2021/01/16 09:33:46;;;;;;;25.00;17.73;;;;;;;0.40;92.52;99713.44;4899249;28;103020;-78
2021/01/16 09:36:40;;;;;;;22.93;16.33;;;;;;;0.45;92.90;99716.84;4887255;28;103766;-80
2021/01/16 09:39:15;;;;;;;22.80;16.57;;;;;;;0.44;93.03;99710.78;4895223;28;103944;-85
2021/01/16 09:41:47;;;;;;;24.97;17.10;;;;;;;0.43;93.07;99716.84;4898522;28;103630;-80
2021/01/16 09:44:15;;;;;;;22.30;17.70;;;;;;;0.32;93.07;99710.09;4895380;28;103222;-82
2021/01/16 09:46:43;;;;;;;22.33;16.30;;;;;;;0.38;93.21;99715.22;4886724;28;104429;-82
2021/01/16 09:49:13;;;;;;;22.57;17.10;;;;;;;0.33;92.65;99712.69;4888788;28;103636;-82
2021/01/16 09:51:40;;;;;;;23.70;17.57;;;;;;;-0.03;93.70;99724.47;4908265;28;103007;-82
2021/01/16 09:54:09;;;;;;;20.97;16.30;;;;;;;0.15;93.60;99715.56;4890565;28;104894;-82
2021/01/16 09:56:44;;;;;;;19.17;14.93;;;;;;;-0.24;92.79;99713.50;4906223;28;103942;-80
2021/01/16 09:59:15;;;;;;;22.47;14.13;;;;;;;-0.14;92.34;99712.53;4907644;28;103278;-81
2021/01/16 10:01:44;;;;;;;21.10;14.60;;;;;;;-0.08;92.61;99707.22;4905518;28;103273;-84
2021/01/16 10:04:25;;;;;;;24.43;16.03;;;;;;;0.00;92.31;99706.22;4905384;28;103497;-82
2021/01/16 10:06:53;;;;;;;20.00;14.73;;;;;;;0.08;91.72;99706.13;4903455;28;104592;-80
2021/01/16 10:09:22;;;;;;;18.50;14.70;;;;;;;-0.05;90.43;99699.38;4909489;28;104342;-84
2021/01/16 10:11:49;;;;;;;18.83;14.70;;;;;;;-0.05;91.34;99701.97;4908305;28;102975;-85
2021/01/16 10:14:18;;;;;;;19.60;14.80;;;;;;;-0.23;92.44;99700.50;4906196;28;105159;-81
2021/01/16 10:16:46;;;;;;;21.03;15.23;;;;;;;-0.44;92.32;99695.56;4904514;28;104814;-81
2021/01/16 10:19:16;;;;;;;19.07;14.70;;;;;;;-0.10;92.68;99680.41;4904060;28;106595;-80
2021/01/16 10:21:55;;;;;;;20.80;16.27;;;;;;;0.00;92.23;99679.41;4907674;28;103052;-85
2021/01/16 10:24:27;;;;;;;22.37;15.77;;;;;;;-0.05;91.55;99663.00;4905165;28;103063;-83
2021/01/16 10:26:54;;;;;;;20.07;14.10;;;;;;;0.04;90.55;99662.00;4904482;28;104896;-80
2021/01/16 10:29:29;;;;;;;17.77;13.73;;;;;;;-0.06;90.67;99661.31;4908407;28;103920;-80
2021/01/16 10:32:18;;;;;;;18.10;13.37;;;;;;;0.06;89.42;99660.28;4907356;28;103075;-82
2021/01/16 10:34:46;;;;;;;15.97;12.47;;;;;;;0.14;89.32;99654.03;4906073;28;102980;-82
2021/01/16 10:37:14;;;;;;;18.30;13.73;;;;;;;0.34;89.01;99652.00;4899311;28;105022;-83
2021/01/16 10:39:41;;;;;;;18.37;13.03;;;;;;;0.07;86.44;99639.44;4897104;28;106993;-83
2021/01/16 10:42:12;;;;;;;15.60;11.80;;;;;;;-0.01;85.94;99643.91;4927960;28;102657;-86
2021/01/16 10:44:40;;;;;;;16.23;12.37;;;;;;;-0.16;87.45;99638.94;4923967;28;102996;-83
2021/01/16 10:47:32;;;;;;;18.70;13.20;;;;;;;0.16;87.71;99636.72;4905580;28;103986;-84
2021/01/16 10:50:06;;;;;;;17.13;12.30;;;;;;;0.25;86.80;99626.19;4907120;28;103652;-81
2021/01/16 10:52:34;;;;;;;17.97;13.07;;;;;;;0.37;86.90;99627.69;4906138;28;103376;-82
2021/01/16 10:55:03;;;;;;;17.47;12.67;;;;;;;0.44;85.73;99622.38;4906451;28;103466;-81
2021/01/16 10:57:44;;;;;;;19.30;14.20;;;;;;;0.42;84.54;99618.94;4905723;28;104079;-83
2021/01/16 11:00:14;;;;;;;19.37;13.00;;;;;;;0.20;85.04;99614.97;4906674;28;104166;-83
2021/01/16 11:02:46;;;;;;;14.53;10.60;;;;;;;0.44;85.81;99601.59;4907323;28;103098;-85
2021/01/16 11:05:35;;;;;;;16.57;12.73;;;;;;;0.51;83.41;99603.16;4892418;28;103441;-84
2021/01/16 11:08:12;;;;;;;15.53;10.37;;;;;;;0.72;84.17;99608.88;4907020;28;103752;-79
2021/01/16 11:10:39;;;;;;;15.80;12.87;;;;;;;0.75;83.75;99607.09;4904544;28;103923;-81
2021/01/16 11:13:19;;;;;;;18.30;12.43;;;;;;;0.76;83.99;99600.97;4905394;28;103121;-78
2021/01/16 11:15:51;;;;;;;16.17;13.23;;;;;;;0.85;83.42;99603.41;4890026;28;103276;-76
2021/01/16 11:18:38;;;;;;;15.77;11.90;;;;;;;0.94;83.83;99597.16;4906147;28;104376;-80
2021/01/16 11:21:07;;;;;;;16.97;14.30;;;;;;;0.66;84.56;99602.03;4905108;28;111791;-77
2021/01/16 11:24:19;;;;;;;16.23;13.17;;;;;;;0.83;84.45;99601.72;4906188;28;103200;-77
2021/01/16 11:26:47;;;;;;;17.23;13.00;;;;;;;0.90;84.68;99595.53;4899244;28;103022;-78
2021/01/16 11:29:18;;;;;;;17.40;13.60;;;;;;;0.71;84.98;99587.19;4906561;28;105479;-79
2021/01/16 11:31:51;;;;;;;19.27;14.43;;;;;;;0.91;84.28;99587.69;4905060;28;106147;-81
2021/01/16 11:34:25;;;;;;;16.77;12.90;;;;;;;0.95;84.52;99591.09;4904109;28;103961;-83